Time;durP1;ratioP1;P1;durP2;ratioP2;P2;SDS_P1;SDS_P2;PMS_P1;PMS_P2;Temp;Humidity;BMP_temperature;BMP_pressure;BME280_temperature;BME280_humidity;BME280_pressure;Samples;Min_cycle;Max_cycle;Signal;HPM_P1;HPM_P2
2022/08/25 00:01:59;;;;;;;4.05;3.33;;;18.10;99.90;;;;;;5022181;28;20113;-87
2022/08/25 00:04:48;;;;;;;3.83;3.53;;;18.10;99.90;;;;;;4969412;29;20035;-87
2022/08/25 00:08:05;;;;;;;5.13;4.03;;;18.10;99.90;;;;;;4962011;29;20027;-88
2022/08/25 00:10:41;;;;;;;5.10;4.25;;;18.00;99.90;;;;;;4961237;29;20039;-87
2022/08/25 00:14:16;;;;;;;4.68;4.28;;;18.00;99.90;;;;;;4962969;28;20030;-87
2022/08/25 00:17:16;;;;;;;4.60;4.20;;;17.90;99.90;;;;;;4937909;29;20043;-87
2022/08/25 04:31:40;;;;;;;14.13;10.52;;;16.10;99.90;;;;;;5030117;22;20035;-86
2022/08/25 04:34:06;;;;;;;17.23;12.15;;;16.10;99.90;;;;;;5026877;28;20033;-86
2022/08/25 04:36:32;;;;;;;16.00;12.25;;;16.10;99.90;;;;;;5043956;28;20029;-84
2022/08/25 04:38:58;;;;;;;15.25;11.23;;;16.10;99.90;;;;;;5048175;28;20021;-84
2022/08/25 04:41:24;;;;;;;15.65;12.70;;;16.10;99.90;;;;;;5052304;28;20074;-84
2022/08/25 04:43:51;;;;;;;15.20;12.35;;;16.10;99.90;;;;;;5049828;28;20080;-84
2022/08/25 04:46:20;;;;;;;20.17;12.13;;;16.10;99.90;;;;;;5018031;28;20025;-84
2022/08/25 04:48:46;;;;;;;14.65;11.75;;;16.20;99.90;;;;;;5038146;28;20029;-84
2022/08/25 04:51:18;;;;;;;13.25;11.20;;;16.20;99.90;;;;;;5019670;28;20025;-84
2022/08/25 04:53:45;;;;;;;13.50;11.43;;;16.20;99.90;;;;;;5037935;28;20036;-84
2022/08/25 04:56:14;;;;;;;14.73;11.85;;;16.20;99.90;;;;;;5037255;28;20108;-82
2022/08/25 04:58:40;;;;;;;16.38;13.95;;;16.20;99.90;;;;;;5038971;28;20025;-84
2022/08/25 05:01:11;;;;;;;17.35;13.75;;;16.20;99.90;;;;;;5038520;28;20030;-83
2022/08/25 05:03:37;;;;;;;15.60;12.75;;;16.30;99.90;;;;;;5023862;28;20065;-83
2022/08/25 05:06:04;;;;;;;15.63;11.07;;;16.30;99.90;;;;;;5039473;28;20360;-84
2022/08/25 05:08:31;;;;;;;11.38;9.93;;;16.30;99.90;;;;;;5022954;28;20036;-84
2022/08/25 05:10:57;;;;;;;11.43;10.05;;;16.30;99.90;;;;;;5023450;28;20065;-84
2022/08/25 05:13:24;;;;;;;12.57;9.43;;;16.40;99.90;;;;;;5038418;28;20025;-84
2022/08/25 05:15:57;;;;;;;15.10;11.20;;;16.40;99.90;;;;;;5038833;28;20146;-85
2022/08/25 05:18:25;;;;;;;14.13;11.15;;;16.50;99.90;;;;;;5038901;28;20025;-84
2022/08/25 05:20:53;;;;;;;13.43;10.80;;;16.60;99.90;;;;;;5042844;28;20014;-84
2022/08/25 05:23:22;;;;;;;13.07;9.88;;;16.60;99.90;;;;;;5040551;28;20022;-85
2022/08/25 05:25:50;;;;;;;17.27;11.60;;;16.70;99.90;;;;;;5038623;28;20044;-85
2022/08/25 05:28:16;;;;;;;14.68;11.57;;;16.70;99.90;;;;;;5019665;28;20028;-84
2022/08/25 05:30:43;;;;;;;11.88;10.07;;;16.80;99.90;;;;;;5039329;28;20100;-84
2022/08/25 05:33:10;;;;;;;13.52;10.60;;;16.80;99.90;;;;;;5023872;28;20158;-85
2022/08/25 05:35:36;;;;;;;12.07;9.15;;;16.80;99.90;;;;;;5018649;28;20025;-85
2022/08/25 05:38:03;;;;;;;14.55;11.27;;;16.90;99.90;;;;;;5017430;28;20080;-84
2022/08/25 05:40:29;;;;;;;12.35;9.88;;;17.00;99.90;;;;;;5016690;28;20030;-85
2022/08/25 05:42:56;;;;;;;13.05;9.38;;;17.10;99.90;;;;;;5018325;28;20050;-83
2022/08/25 05:45:22;;;;;;;19.33;13.55;;;17.20;99.90;;;;;;5019994;28;20029;-84
2022/08/25 05:47:48;;;;;;;16.27;12.27;;;17.20;99.90;;;;;;4998686;28;20033;-84
2022/08/25 05:50:14;;;;;;;19.25;12.25;;;17.30;99.90;;;;;;5016611;28;20392;-85
2022/08/25 05:52:40;;;;;;;14.75;11.63;;;17.30;99.90;;;;;;5018418;28;20030;-84
2022/08/25 05:55:06;;;;;;;13.43;10.15;;;17.30;99.90;;;;;;5005939;28;20030;-85
2022/08/25 05:57:32;;;;;;;15.18;11.75;;;17.40;99.90;;;;;;5008352;28;20404;-84
2022/08/25 06:00:43;;;;;;;14.43;10.85;;;17.40;99.90;;;;;;5018879;28;20026;-84
2022/08/25 06:14:18;;;;;;;14.73;10.00;;;17.80;99.90;;;;;;4949160;29;20059;-85
2022/08/25 06:36:53;;;;;;;7.97;6.70;;;19.80;99.90;;;;;;4921843;29;20063;-83
2022/08/25 06:43:16;;;;;;;6.60;6.00;;;;;;;;;;4914620;29;20070;-84
2022/08/25 06:46:31;;;;;;;8.40;6.15;;;;;;;;;;4914505;29;20064;-80
2022/08/25 06:49:31;;;;;;;5.82;5.22;;;;;;;;;;4912836;29;20044;-82
2022/08/25 06:58:00;;;;;;;8.40;6.32;;;;;;;;;;4929725;28;20045;-82
2022/08/25 07:00:26;;;;;;;7.85;7.03;;;;;;;;;;5010043;28;20126;-80
2022/08/25 07:02:52;;;;;;;7.03;6.32;;;;;;;;;;5017716;28;20041;-80
2022/08/25 07:05:18;;;;;;;8.27;7.40;;;;;;;;;;5049939;28;20039;-83
2022/08/25 07:07:45;;;;;;;9.18;7.68;;;;;;;;;;5049423;28;20037;-81
2022/08/25 07:10:12;;;;;;;7.53;6.72;;;;;;;;;;5047667;28;20056;-81
2022/08/25 07:12:38;;;;;;;9.52;7.72;;;;;;;;;;5044667;28;20093;-80
2022/08/25 07:15:05;;;;;;;7.60;6.18;;;;;;;;;;5046026;28;20112;-80
2022/08/25 07:17:31;;;;;;;7.97;6.72;;;;;;;;;;5046066;28;20025;-79
2022/08/25 07:19:56;;;;;;;7.28;6.57;;;19.90;97.70;;;;;;5045656;28;20018;-79
2022/08/25 07:22:22;;;;;;;6.57;5.38;;;19.80;97.40;;;;;;5046981;28;20029;-80
2022/08/25 07:24:48;;;;;;;5.38;4.88;;;19.80;97.40;;;;;;5047243;28;20025;-80
2022/08/25 07:27:14;;;;;;;5.97;5.15;;;19.90;97.40;;;;;;5035272;28;20044;-80
2022/08/25 07:29:40;;;;;;;6.57;5.68;;;20.00;97.30;;;;;;5046446;28;20060;-80
2022/08/25 07:32:05;;;;;;;9.70;8.02;;;20.10;97.10;;;;;;5047817;28;20097;-80
2022/08/25 07:37:38;;;;;;;8.00;6.95;;;20.30;97.10;;;;;;5042641;28;20049;-80
2022/08/25 07:40:04;;;;;;;8.30;7.07;;;20.30;96.90;;;;;;5038162;28;20025;-80
2022/08/25 07:42:30;;;;;;;7.32;6.53;;;20.40;96.80;;;;;;5045631;28;20029;-81
2022/08/25 07:44:56;;;;;;;12.30;7.32;;;20.50;96.60;;;;;;5043063;28;20095;-80
2022/08/25 07:47:21;;;;;;;7.88;7.07;;;20.70;96.60;;;;;;5033033;28;20047;-79
2022/08/25 07:49:47;;;;;;;9.55;7.70;;;20.80;96.00;;;;;;5033707;28;20036;-78
2022/08/25 07:52:13;;;;;;;9.27;7.35;;;20.90;95.90;;;;;;5033164;28;20089;-80
2022/08/25 07:54:39;;;;;;;14.70;8.25;;;20.90;95.80;;;;;;5034234;28;20087;-79
2022/08/25 07:57:07;;;;;;;7.95;7.15;;;21.10;95.40;;;;;;5033695;28;20498;-80
2022/08/25 07:59:33;;;;;;;11.18;8.55;;;21.10;95.70;;;;;;5017042;28;20018;-80
2022/08/25 08:01:59;;;;;;;9.60;8.13;;;21.20;94.80;;;;;;4998682;28;20030;-79
2022/08/25 08:04:25;;;;;;;7.82;7.03;;;21.20;94.80;;;;;;5024946;28;20031;-79
2022/08/25 08:06:50;;;;;;;9.93;7.55;;;21.30;94.70;;;;;;5048780;28;20032;-80
2022/08/25 08:09:16;;;;;;;8.48;7.18;;;21.40;94.30;;;;;;5035533;28;20022;-80
2022/08/25 08:11:43;;;;;;;10.45;6.72;;;21.40;94.00;;;;;;5033654;28;20399;-78
2022/08/25 08:14:10;;;;;;;10.80;7.07;;;21.60;94.10;;;;;;5033471;28;20029;-78
2022/08/25 08:16:37;;;;;;;9.32;7.20;;;21.70;93.80;;;;;;5037386;28;20438;-80
2022/08/25 08:19:03;;;;;;;8.27;7.47;;;21.90;93.00;;;;;;5039540;28;20044;-79
2022/08/25 08:21:33;;;;;;;9.95;7.00;;;22.00;92.20;;;;;;5043384;28;20025;-81
2022/08/25 08:23:59;;;;;;;6.63;6.00;;;22.10;92.00;;;;;;5043887;28;20430;-80
2022/08/25 08:26:26;;;;;;;5.65;5.00;;;22.20;91.50;;;;;;5040685;28;20077;-81
2022/08/25 08:28:52;;;;;;;6.57;5.65;;;22.30;91.30;;;;;;5039236;28;20028;-79
2022/08/25 08:31:20;;;;;;;5.50;4.75;;;22.70;90.80;;;;;;5036041;28;20029;-80
2022/08/25 08:33:47;;;;;;;9.75;6.35;;;22.90;90.30;;;;;;5039428;28;20013;-78
2022/08/25 08:36:13;;;;;;;7.65;6.05;;;23.00;88.60;;;;;;5040941;28;20026;-81
2022/08/25 08:38:42;;;;;;;9.07;6.60;;;23.00;88.80;;;;;;5040812;28;20138;-79
2022/08/25 08:44:45;;;;;;;5.30;4.78;;;23.00;87.60;;;;;;5008771;28;20091;-80
2022/08/25 08:47:38;;;;;;;6.18;5.35;;;23.20;87.70;;;;;;5024442;28;20106;-80
2022/08/25 08:50:23;;;;;;;11.13;5.63;;;23.40;85.90;;;;;;5024898;28;20037;-79
2022/08/25 08:53:12;;;;;;;6.30;4.75;;;23.60;84.20;;;;;;5042262;28;20442;-79
2022/08/25 08:55:43;;;;;;;5.85;4.90;;;23.70;84.10;;;;;;5040863;28;20039;-78
2022/08/25 08:58:20;;;;;;;5.28;4.13;;;23.90;82.20;;;;;;5038988;28;20042;-79
2022/08/25 09:00:53;;;;;;;7.20;5.43;;;24.20;82.10;;;;;;5041072;28;20025;-79
2022/08/25 09:03:36;;;;;;;6.65;6.05;;;24.40;81.40;;;;;;5047120;28;20017;-80
2022/08/25 09:06:11;;;;;;;8.60;5.90;;;24.40;81.70;;;;;;5047461;28;20049;-79
2022/08/25 09:08:42;;;;;;;8.95;7.38;;;24.50;81.80;;;;;;5027922;28;20510;-81
2022/08/25 09:11:55;;;;;;;8.85;6.43;;;24.40;80.30;;;;;;5038925;28;20030;-79
2022/08/25 09:14:38;;;;;;;7.05;5.38;;;24.20;80.90;;;;;;5030325;28;20099;-79
2022/08/25 09:17:43;;;;;;;6.03;4.97;;;24.10;81.50;;;;;;5035229;28;20021;-80
2022/08/25 09:20:39;;;;;;;7.25;5.82;;;24.40;79.70;;;;;;5022860;28;20154;-79
2022/08/25 09:23:14;;;;;;;6.80;5.13;;;24.50;79.30;;;;;;5036056;28;20115;-79
2022/08/25 09:25:54;;;;;;;7.70;5.38;;;24.50;80.40;;;;;;5036955;28;20020;-78
2022/08/25 09:28:39;;;;;;;5.78;5.25;;;24.60;79.10;;;;;;5035176;28;20101;-79
2022/08/25 09:31:16;;;;;;;7.22;6.03;;;24.70;79.20;;;;;;5035240;28;20044;-80
2022/08/25 09:33:41;;;;;;;9.30;6.05;;;25.00;79.00;;;;;;5036030;28;20369;-80
2022/08/25 09:36:07;;;;;;;6.68;5.57;;;25.20;79.30;;;;;;5036129;28;20097;-81
2022/08/25 09:38:33;;;;;;;6.78;4.50;;;25.40;77.70;;;;;;5035934;28;20036;-79
2022/08/25 09:41:00;;;;;;;5.95;4.97;;;25.60;77.70;;;;;;5035686;28;20030;-80
2022/08/25 09:43:51;;;;;;;6.82;5.43;;;25.80;75.00;;;;;;5018324;28;20026;-79
2022/08/25 09:46:24;;;;;;;6.22;5.72;;;25.80;74.50;;;;;;5035121;28;20104;-79
2022/08/25 09:49:09;;;;;;;6.03;4.85;;;25.90;73.40;;;;;;5037685;28;20114;-79
2022/08/25 09:51:38;;;;;;;4.95;4.45;;;26.00;74.40;;;;;;5038911;28;20022;-79
2022/08/25 09:54:17;;;;;;;7.43;5.70;;;26.30;73.40;;;;;;5042028;28;20025;-83
2022/08/25 09:56:53;;;;;;;4.88;4.47;;;26.40;71.70;;;;;;5038438;28;20056;-79
2022/08/25 09:59:27;;;;;;;5.57;4.72;;;26.50;71.90;;;;;;5035708;28;20472;-79
2022/08/25 10:01:56;;;;;;;5.63;4.90;;;26.40;70.90;;;;;;5042771;28;20029;-78
2022/08/25 10:04:35;;;;;;;5.18;4.35;;;26.50;71.10;;;;;;5020171;28;20026;-80
2022/08/25 10:07:24;;;;;;;4.85;4.28;;;26.80;69.20;;;;;;5035100;28;20029;-80
2022/08/25 10:10:06;;;;;;;4.90;3.88;;;26.80;69.30;;;;;;5035249;28;20029;-78
2022/08/25 10:12:39;;;;;;;6.95;4.18;;;26.90;68.10;;;;;;5018475;28;20113;-79
2022/08/25 10:15:15;;;;;;;4.45;3.97;;;27.10;68.00;;;;;;5036008;28;20400;-78
2022/08/25 10:17:41;;;;;;;5.40;4.15;;;27.40;67.10;;;;;;5034926;28;20108;-78
2022/08/25 10:20:10;;;;;;;5.05;4.55;;;27.70;66.00;;;;;;5034487;28;20057;-79
2022/08/25 10:22:40;;;;;;;4.80;4.22;;;27.90;64.70;;;;;;5036126;28;20024;-80
2022/08/25 10:25:09;;;;;;;6.38;3.92;;;28.10;64.60;;;;;;5035238;28;20036;-79
2022/08/25 10:27:47;;;;;;;4.72;4.25;;;28.30;63.90;;;;;;5009083;28;20022;-78
2022/08/25 10:30:27;;;;;;;6.65;4.68;;;28.50;63.50;;;;;;5034542;28;20134;-79
2022/08/25 10:33:26;;;;;;;5.25;4.40;;;28.40;62.00;;;;;;5082364;22;20044;-84
2022/08/25 10:36:05;;;;;;;5.45;3.90;;;28.00;63.00;;;;;;5070942;28;20037;-84
2022/08/25 10:38:44;;;;;;;4.75;4.35;;;27.90;63.20;;;;;;5053572;28;20044;-85
2022/08/25 10:41:31;;;;;;;7.60;4.50;;;27.80;63.60;;;;;;5085560;28;20020;-84
2022/08/25 10:44:03;;;;;;;6.82;4.28;;;27.70;63.30;;;;;;5089732;28;20116;-85
2022/08/25 10:47:21;;;;;;;4.68;4.35;;;27.70;63.10;;;;;;5075613;28;20036;-82
2022/08/25 10:50:05;;;;;;;4.65;4.25;;;27.50;63.70;;;;;;5069388;28;20033;-84
2022/08/25 10:52:43;;;;;;;6.38;5.10;;;27.70;64.50;;;;;;5055058;28;20177;-84
2022/08/25 10:55:16;;;;;;;5.07;4.65;;;28.00;62.80;;;;;;5071769;28;20047;-85
2022/08/25 10:57:51;;;;;;;5.80;4.70;;;28.00;63.00;;;;;;5080775;28;20013;-83
2022/08/25 11:00:22;;;;;;;8.48;5.20;;;28.10;62.20;;;;;;5074456;28;20033;-83
2022/08/25 11:03:20;;;;;;;6.72;5.38;;;27.80;63.00;;;;;;5055618;28;20040;-83
2022/08/25 11:06:01;;;;;;;5.88;4.90;;;27.60;63.40;;;;;;5059732;28;20061;-85
2022/08/25 11:08:36;;;;;;;5.67;5.07;;;27.50;62.70;;;;;;5055795;28;20048;-84
2022/08/25 11:11:27;;;;;;;6.82;5.10;;;27.50;62.90;;;;;;5060066;28;20451;-84
2022/08/25 11:13:59;;;;;;;6.00;4.80;;;27.70;61.80;;;;;;5074551;28;20013;-84
2022/08/25 11:16:24;;;;;;;9.00;5.43;;;28.10;61.10;;;;;;5075473;28;20009;-82
2022/08/25 11:19:05;;;;;;;4.93;4.20;;;28.40;59.60;;;;;;5075872;28;20032;-83
2022/08/25 11:21:48;;;;;;;5.28;4.78;;;28.50;59.40;;;;;;5075422;28;20017;-83
2022/08/25 11:24:31;;;;;;;4.93;4.40;;;28.80;59.10;;;;;;5057111;28;20039;-83
2022/08/25 11:26:58;;;;;;;4.82;4.43;;;28.90;59.60;;;;;;5057033;28;20105;-83
2022/08/25 11:29:34;;;;;;;7.35;5.32;;;29.20;58.90;;;;;;5074842;28;20550;-84
2022/08/25 11:32:00;;;;;;;6.25;5.15;;;29.40;58.70;;;;;;5074948;28;20029;-83
2022/08/25 11:34:31;;;;;;;5.13;4.72;;;29.10;58.80;;;;;;5057429;28;20390;-85
2022/08/25 11:37:07;;;;;;;7.32;4.93;;;29.00;59.90;;;;;;5057561;28;20066;-84
2022/08/25 11:40:12;;;;;;;6.85;5.82;;;29.30;59.70;;;;;;5058006;28;20025;-83
2022/08/25 11:42:50;;;;;;;9.63;6.15;;;29.40;59.20;;;;;;5058818;28;20105;-82
2022/08/25 11:45:43;;;;;;;6.93;5.75;;;29.30;59.10;;;;;;5076262;28;20028;-83
2022/08/25 11:48:28;;;;;;;7.70;5.63;;;29.00;59.40;;;;;;5076035;28;20082;-84
2022/08/25 11:51:04;;;;;;;5.72;5.03;;;28.90;60.20;;;;;;5076432;28;20076;-83
2022/08/25 11:53:41;;;;;;;9.38;6.18;;;29.00;60.40;;;;;;5075752;28;20038;-83
2022/08/25 11:56:11;;;;;;;8.00;6.28;;;29.20;60.00;;;;;;5096239;28;20016;-84
2022/08/25 11:58:45;;;;;;;7.53;5.70;;;29.30;59.60;;;;;;5079840;28;20032;-83
2022/08/25 12:01:31;;;;;;;8.43;5.75;;;29.60;58.70;;;;;;5075659;28;20100;-84
2022/08/25 12:04:38;;;;;;;7.93;5.50;;;29.90;58.60;;;;;;5076969;28;20037;-84
2022/08/25 12:07:09;;;;;;;7.72;5.72;;;29.90;57.60;;;;;;5058858;28;20010;-82
2022/08/25 12:09:50;;;;;;;9.02;5.57;;;29.90;57.30;;;;;;5059553;28;20015;-84
2022/08/25 12:12:35;;;;;;;6.97;5.32;;;29.80;57.40;;;;;;5077727;28;20009;-83
2022/08/25 12:15:30;;;;;;;8.27;5.68;;;29.80;57.40;;;;;;5061738;28;20048;-82
2022/08/25 12:18:14;;;;;;;7.22;5.20;;;29.80;57.60;;;;;;5061558;28;20040;-85
2022/08/25 12:20:52;;;;;;;8.95;5.78;;;29.60;57.30;;;;;;5079289;28;20031;-82
2022/08/25 12:23:41;;;;;;;6.53;5.53;;;29.70;57.10;;;;;;5078824;28;20013;-83
2022/08/25 12:26:25;;;;;;;6.30;5.05;;;30.10;55.90;;;;;;5063192;28;20033;-83
2022/08/25 12:29:22;;;;;;;7.38;6.00;;;30.10;55.80;;;;;;5099361;28;20012;-83
2022/08/25 12:32:21;;;;;;;7.53;5.55;;;30.10;56.50;;;;;;5043485;28;20033;-83
2022/08/25 12:35:14;;;;;;;6.32;5.65;;;30.10;55.60;;;;;;5080334;28;20033;-82
2022/08/25 12:38:01;;;;;;;10.15;5.53;;;30.10;55.70;;;;;;5080675;28;20042;-82
2022/08/25 12:40:41;;;;;;;6.88;5.82;;;30.30;55.70;;;;;;5097060;28;20072;-83
2022/08/25 12:43:32;;;;;;;9.88;6.85;;;30.00;55.70;;;;;;5096326;28;20016;-83
2022/08/25 12:46:24;;;;;;;10.30;6.57;;;29.50;57.00;;;;;;5096728;28;20115;-83
2022/08/25 12:49:14;;;;;;;11.23;6.40;;;29.70;57.50;;;;;;5080033;28;20259;-83
2022/08/25 12:51:55;;;;;;;9.25;6.28;;;30.10;56.30;;;;;;5099199;28;20009;-83
2022/08/25 12:54:42;;;;;;;8.83;6.80;;;29.80;56.50;;;;;;5099652;28;20031;-84
2022/08/25 12:57:16;;;;;;;8.15;6.20;;;29.30;57.60;;;;;;5088020;28;20040;-83
2022/08/25 12:59:50;;;;;;;11.02;6.40;;;29.10;58.10;;;;;;5078520;28;20076;-84
2022/08/25 13:03:07;;;;;;;12.50;6.95;;;29.40;58.10;;;;;;5097965;28;20009;-84
2022/08/25 13:05:53;;;;;;;10.30;6.13;;;29.70;57.80;;;;;;5065209;28;20056;-84
2022/08/25 13:08:43;;;;;;;8.35;6.32;;;29.90;56.70;;;;;;5096267;28;20111;-84
2022/08/25 13:11:14;;;;;;;13.65;6.57;;;29.90;56.40;;;;;;5068946;28;20025;-84
2022/08/25 13:13:59;;;;;;;9.48;6.85;;;29.90;55.80;;;;;;5058932;28;20025;-85
2022/08/25 13:16:27;;;;;;;11.05;6.35;;;29.80;56.30;;;;;;5077173;28;20033;-83
2022/08/25 13:18:57;;;;;;;13.88;7.30;;;29.90;56.20;;;;;;5076819;28;20033;-84
2022/08/25 13:21:36;;;;;;;12.30;6.93;;;30.00;55.60;;;;;;5066259;28;20137;-84
2022/08/25 13:24:08;;;;;;;14.68;7.15;;;30.10;55.70;;;;;;5077557;28;20061;-84
2022/08/25 13:26:43;;;;;;;11.63;6.28;;;29.90;55.30;;;;;;5077730;28;20081;-84
2022/08/25 13:29:14;;;;;;;13.95;6.63;;;29.80;56.10;;;;;;5078016;28;20043;-84
2022/08/25 13:32:04;;;;;;;6.80;6.03;;;29.80;56.00;;;;;;5079620;28;20057;-84
2022/08/25 13:34:37;;;;;;;9.00;6.43;;;29.90;56.30;;;;;;5078896;28;20033;-83
2022/08/25 13:37:27;;;;;;;14.27;6.55;;;30.10;55.90;;;;;;5078427;28;20040;-83
2022/08/25 13:40:21;;;;;;;10.35;6.75;;;30.10;55.00;;;;;;5078818;28;20017;-83
2022/08/25 13:42:50;;;;;;;13.23;7.00;;;29.90;55.60;;;;;;5072280;28;20023;-84
2022/08/25 13:45:22;;;;;;;13.18;7.18;;;30.20;55.50;;;;;;5061154;28;20017;-83
2022/08/25 13:47:49;;;;;;;12.45;7.15;;;30.40;54.90;;;;;;5060372;28;20013;-85
2022/08/25 13:50:24;;;;;;;12.45;8.30;;;30.30;55.10;;;;;;5077782;28;20067;-85
2022/08/25 13:53:00;;;;;;;14.95;6.82;;;30.10;55.40;;;;;;5059468;28;20048;-85
2022/08/25 13:55:55;;;;;;;11.32;7.00;;;30.00;56.50;;;;;;5062073;28;20021;-85
2022/08/25 13:58:27;;;;;;;12.13;7.78;;;30.30;55.20;;;;;;5069484;28;20102;-84
2022/08/25 14:01:07;;;;;;;;;;;30.60;54.90;;;;;;5079574;28;20061;-84
2022/08/25 14:03:42;;;;;;;12.63;7.40;;;30.90;54.20;;;;;;5080340;28;20358;-85
2022/08/25 14:06:13;;;;;;;7.32;6.30;;;31.30;53.10;;;;;;5075624;28;20025;-84
2022/08/25 14:09:08;;;;;;;10.20;6.53;;;31.50;51.00;;;;;;5058625;28;20025;-85
2022/08/25 14:11:46;;;;;;;9.02;6.07;;;31.40;51.20;;;;;;5047422;28;20036;-84
2022/08/25 14:14:29;;;;;;;9.52;6.28;;;31.50;51.90;;;;;;5092967;28;20029;-84
2022/08/25 14:17:08;;;;;;;9.25;5.93;;;32.00;50.90;;;;;;5094909;28;20055;-85
2022/08/25 14:19:43;;;;;;;8.25;6.57;;;32.30;51.20;;;;;;5077209;28;20004;-84
2022/08/25 14:22:11;;;;;;;15.15;6.60;;;32.70;50.80;;;;;;5094980;28;20032;-85
2022/08/25 14:24:37;;;;;;;13.25;6.95;;;32.80;49.60;;;;;;5094599;28;20040;-85
2022/08/25 14:27:03;;;;;;;11.40;6.65;;;32.30;49.90;;;;;;5075650;28;20032;-84
2022/08/25 14:29:30;;;;;;;14.10;6.68;;;;;;;;;;5076783;28;20020;-84
2022/08/25 14:31:56;;;;;;;12.77;6.65;;;31.20;51.90;;;;;;5075395;28;20028;-84
2022/08/25 14:34:26;;;;;;;21.58;6.97;;;31.30;52.30;;;;;;5057883;28;20031;-85
2022/08/25 14:36:52;;;;;;;9.80;6.85;;;31.20;52.80;;;;;;5074583;28;20064;-85
2022/08/25 14:39:18;;;;;;;16.70;7.30;;;30.80;53.80;;;;;;5057795;28;20044;-85
2022/08/25 14:41:45;;;;;;;15.23;6.97;;;30.60;54.30;;;;;;5058329;28;20013;-85
2022/08/25 14:44:11;;;;;;;11.88;7.25;;;30.70;54.30;;;;;;5084575;28;20052;-84
2022/08/25 14:46:42;;;;;;;9.02;6.82;;;31.00;53.50;;;;;;5095584;28;20091;-84
2022/08/25 14:49:12;;;;;;;9.18;6.97;;;30.90;53.20;;;;;;5078821;28;20044;-84
2022/08/25 14:51:41;;;;;;;10.00;6.93;;;30.80;53.70;;;;;;5077989;28;20041;-84
2022/08/25 14:54:12;;;;;;;14.48;7.35;;;31.20;53.20;;;;;;5073825;28;20079;-84
2022/08/25 14:56:38;;;;;;;;;;;31.20;51.90;;;;;;5083338;28;20019;-84
2022/08/25 14:59:04;;;;;;;10.18;6.72;;;30.90;52.30;;;;;;5080074;28;19976;-83
2022/08/25 15:01:30;;;;;;;15.00;7.05;;;30.80;52.90;;;;;;5057762;28;20036;-83
2022/08/25 15:04:09;;;;;;;9.82;6.80;;;30.60;52.90;;;;;;5057307;28;20017;-84
2022/08/25 15:06:35;;;;;;;10.45;7.03;;;30.40;53.50;;;;;;5074473;28;20032;-84
2022/08/25 15:09:11;;;;;;;20.48;8.10;;;30.30;54.30;;;;;;5074505;28;20013;-84
2022/08/25 15:11:43;;;;;;;20.23;7.65;;;30.20;54.40;;;;;;5074162;28;20043;-84
2022/08/25 15:14:11;;;;;;;21.02;8.38;;;30.10;54.60;;;;;;5058132;28;20017;-84
2022/08/25 15:16:40;;;;;;;16.20;7.85;;;29.70;55.20;;;;;;5077114;28;20035;-85
2022/08/25 15:19:08;;;;;;;13.13;7.55;;;29.40;55.90;;;;;;5065277;28;20021;-85
2022/08/25 15:21:35;;;;;;;20.50;8.05;;;29.30;56.40;;;;;;5073823;28;20097;-86
2022/08/25 15:24:16;;;;;;;17.42;8.15;;;29.00;56.60;;;;;;5055903;28;20021;-86
2022/08/25 15:26:44;;;;;;;11.93;7.32;;;28.80;57.60;;;;;;5057332;28;20038;-86
2022/08/25 15:29:10;;;;;;;17.15;8.15;;;28.70;58.40;;;;;;5073827;28;20025;-85
2022/08/25 15:31:38;;;;;;;19.10;8.10;;;28.60;58.30;;;;;;5074220;28;20265;-86
2022/08/25 15:34:05;;;;;;;15.80;8.50;;;28.70;58.10;;;;;;5055675;28;20025;-84
2022/08/25 15:36:32;;;;;;;19.30;8.85;;;28.70;58.30;;;;;;5067380;28;20021;-85
2022/08/25 15:38:58;;;;;;;20.13;8.38;;;28.60;58.40;;;;;;5066145;28;20017;-84
2022/08/25 15:41:23;;;;;;;12.88;7.78;;;28.60;58.60;;;;;;5067002;28;20017;-84
2022/08/25 15:43:49;;;;;;;20.08;8.32;;;28.40;58.90;;;;;;5074988;28;20024;-84
2022/08/25 15:46:25;;;;;;;20.63;8.55;;;28.40;59.00;;;;;;5086639;28;20043;-85
2022/08/25 15:48:54;;;;;;;19.10;7.53;;;28.30;59.30;;;;;;5072081;28;20076;-85
2022/08/25 15:51:20;;;;;;;17.48;7.97;;;28.30;59.60;;;;;;5071404;28;20131;-85
2022/08/25 15:53:46;;;;;;;13.27;7.57;;;28.40;59.70;;;;;;5084630;28;20029;-86
2022/08/25 15:56:14;;;;;;;15.07;6.82;;;28.30;59.40;;;;;;5052243;28;20033;-86
2022/08/25 15:58:41;;;;;;;13.63;7.32;;;28.30;59.70;;;;;;5079950;28;20020;-87
2022/08/25 16:01:19;;;;;;;17.65;7.40;;;28.30;60.00;;;;;;5087792;28;20040;-85
2022/08/25 16:03:46;;;;;;;15.80;8.20;;;28.30;59.60;;;;;;5070182;28;20024;-87
2022/08/25 16:06:12;;;;;;;15.57;7.35;;;28.30;59.50;;;;;;5081458;28;20027;-86
2022/08/25 16:08:38;;;;;;;24.90;8.63;;;28.30;59.50;;;;;;5087602;28;20016;-85
2022/08/25 16:11:05;;;;;;;21.08;7.68;;;28.30;59.20;;;;;;5062762;28;20033;-86
2022/08/25 16:13:31;;;;;;;11.23;7.07;;;28.30;59.30;;;;;;5052250;28;20071;-85
2022/08/25 16:15:58;;;;;;;17.63;7.28;;;28.30;59.30;;;;;;5069386;28;20076;-86
2022/08/25 16:18:24;;;;;;;15.13;7.68;;;28.30;59.20;;;;;;5070274;28;20033;-86
2022/08/25 16:20:51;;;;;;;14.60;8.30;;;28.30;59.70;;;;;;5061017;28;20020;-85
2022/08/25 16:23:20;;;;;;;15.50;7.30;;;28.20;60.40;;;;;;5064407;28;20028;-86
2022/08/25 16:25:47;;;;;;;16.50;7.50;;;28.20;61.20;;;;;;5060172;28;20025;-86
2022/08/25 16:28:15;;;;;;;19.95;7.70;;;28.10;60.40;;;;;;5055586;28;20017;-84
2022/08/25 16:30:46;;;;;;;18.90;7.82;;;28.20;60.50;;;;;;5051028;28;20052;-84
2022/08/25 16:33:12;;;;;;;13.50;7.45;;;28.10;60.60;;;;;;5082816;23;20049;-78
2022/08/25 16:35:38;;;;;;;13.68;7.13;;;28.00;60.70;;;;;;5063707;28;20108;-79
2022/08/25 16:38:04;;;;;;;22.02;7.75;;;27.90;60.70;;;;;;5071617;28;20466;-79
2022/08/25 16:40:30;;;;;;;18.95;7.57;;;27.80;60.20;;;;;;5054185;28;20028;-80
2022/08/25 16:42:56;;;;;;;21.10;7.57;;;27.60;60.40;;;;;;5071945;28;20021;-80
2022/08/25 16:45:22;;;;;;;15.55;7.40;;;27.50;61.00;;;;;;5056589;28;20064;-78
2022/08/25 16:47:48;;;;;;;12.45;7.97;;;27.30;61.10;;;;;;5055477;28;20025;-78
2022/08/25 16:50:15;;;;;;;12.50;6.72;;;27.20;61.60;;;;;;5037515;28;20029;-79
2022/08/25 16:55:28;;;;;;;15.85;8.02;;;27.00;62.50;;;;;;5055180;28;20113;-80
2022/08/25 16:57:54;;;;;;;18.33;7.10;;;26.80;63.20;;;;;;5055599;28;20021;-82
2022/08/25 17:00:27;;;;;;;17.00;6.28;;;26.70;63.90;;;;;;5055987;28;20021;-79
2022/08/25 17:02:58;;;;;;;15.90;7.03;;;26.50;64.20;;;;;;5053650;28;20041;-79
2022/08/25 17:05:24;;;;;;;13.43;6.75;;;26.50;64.70;;;;;;5054978;28;20029;-78
2022/08/25 17:10:40;;;;;;;16.35;7.35;;;26.30;65.20;;;;;;5055441;28;20101;-79
2022/08/25 17:13:06;;;;;;;15.02;6.88;;;26.20;65.60;;;;;;5056950;28;20029;-79
2022/08/25 17:15:32;;;;;;;16.92;7.07;;;26.10;65.80;;;;;;5058786;28;20037;-77
2022/08/25 17:17:57;;;;;;;26.30;7.07;;;26.00;66.30;;;;;;5050592;28;20254;-77
2022/08/25 17:20:23;;;;;;;15.10;6.38;;;25.90;66.50;;;;;;5068409;28;20059;-76
2022/08/25 17:22:49;;;;;;;15.52;6.68;;;25.80;66.70;;;;;;5054619;28;20524;-80
2022/08/25 17:25:16;;;;;;;11.30;7.00;;;25.70;67.60;;;;;;5055092;28;20033;-80
2022/08/25 17:27:42;;;;;;;13.00;7.43;;;25.70;67.30;;;;;;5055428;28;20078;-80
2022/08/25 17:30:08;;;;;;;12.10;6.80;;;25.60;67.50;;;;;;5055665;28;20025;-80
2022/08/25 17:32:34;;;;;;;8.80;7.07;;;25.60;67.90;;;;;;5056983;28;20036;-79
2022/08/25 17:35:01;;;;;;;18.20;7.38;;;25.50;68.10;;;;;;5043774;28;20119;-79
2022/08/25 17:37:27;;;;;;;15.63;6.93;;;25.50;68.40;;;;;;5056732;28;20028;-78
2022/08/25 17:39:52;;;;;;;12.98;7.15;;;25.40;68.60;;;;;;5055039;28;20036;-79
2022/08/25 17:42:18;;;;;;;16.58;7.20;;;25.40;68.80;;;;;;5054477;28;20394;-78
2022/08/25 17:44:44;;;;;;;8.82;6.30;;;25.30;69.10;;;;;;5055694;28;20437;-78
2022/08/25 17:47:10;;;;;;;12.18;6.50;;;25.30;69.20;;;;;;5055184;28;20029;-78
2022/08/25 17:49:36;;;;;;;14.88;7.43;;;25.20;69.40;;;;;;5056694;28;20136;-78
2022/08/25 17:52:02;;;;;;;20.25;7.22;;;25.20;69.80;;;;;;5072616;28;20036;-78
2022/08/25 17:54:28;;;;;;;9.15;6.20;;;25.10;70.10;;;;;;5055218;28;20033;-78
2022/08/25 17:56:53;;;;;;;11.18;6.55;;;25.00;70.30;;;;;;5053017;28;20033;-79
2022/08/25 17:59:19;;;;;;;10.90;6.20;;;24.90;70.40;;;;;;5038091;28;20052;-78
2022/08/25 18:01:45;;;;;;;10.75;6.65;;;24.80;71.10;;;;;;5035659;28;20017;-79
2022/08/25 18:04:11;;;;;;;12.75;6.82;;;24.80;71.60;;;;;;5050690;28;20479;-79
2022/08/25 18:06:37;;;;;;;10.23;6.97;;;24.70;72.00;;;;;;5049823;28;20026;-79
2022/08/25 18:09:04;;;;;;;11.50;6.75;;;24.60;72.40;;;;;;5049231;28;20025;-78
2022/08/25 18:11:32;;;;;;;8.50;6.15;;;24.60;72.80;;;;;;5054227;28;20017;-79
2022/08/25 18:13:58;;;;;;;8.68;5.88;;;24.50;72.90;;;;;;5055135;28;20028;-79
2022/08/25 18:16:25;;;;;;;11.27;6.88;;;24.40;73.30;;;;;;5063575;28;20031;-78
2022/08/25 18:18:52;;;;;;;10.95;6.35;;;24.40;73.50;;;;;;5070470;28;20057;-79
2022/08/25 18:21:19;;;;;;;13.48;7.20;;;24.30;73.90;;;;;;5070559;28;20021;-78
2022/08/25 18:23:45;;;;;;;12.93;6.43;;;24.30;74.40;;;;;;5051886;28;20083;-79